Time;durP1;ratioP1;P1;durP2;ratioP2;P2;SDS_P1;SDS_P2;PMS_P1;PMS_P2;Temp;Humidity;BMP_temperature;BMP_pressure;BME280_temperature;BME280_humidity;BME280_pressure;Samples;Min_cycle;Max_cycle;Signal;HPM_P1;HPM_P2
2023/10/29 00:00:28;;;;;;;;;;;;;;;24.05;46.41;98898.44;4214769;28;20298;-63
2023/10/29 00:02:30;;;;;;;;;;;;;;;24.06;46.40;98891.22;4214501;28;20007;-64
2023/10/29 00:04:39;;;;;;;;;;;;;;;24.07;46.49;98891.03;4214766;28;19956;-64
2023/10/29 00:06:40;;;;;;;;;;;;;;;24.11;46.23;98893.31;4214647;28;20427;-63
2023/10/29 00:08:42;;;;;;;;;;;;;;;24.11;46.20;98896.00;4196671;28;20005;-63
2023/10/29 00:10:43;;;;;;;;;;;;;;;24.10;46.13;98892.50;4214633;28;19960;-63
2023/10/29 00:12:45;;;;;;;;;;;;;;;24.07;46.16;98882.97;4214673;28;19952;-62
2023/10/29 00:14:47;;;;;;;;;;;;;;;24.07;46.21;98871.38;4214720;28;19928;-62
2023/10/29 00:16:49;;;;;;;;;;;;;;;24.05;46.18;98851.97;4214296;28;19977;-63
2023/10/29 00:18:51;;;;;;;;;;;;;;;24.04;46.55;98853.81;4214348;28;19947;-64
2023/10/29 00:20:52;;;;;;;;;;;;;;;24.05;46.28;98866.22;4214577;28;20355;-64
2023/10/29 00:22:54;;;;;;;;;;;;;;;24.08;46.40;98865.00;4214512;28;19928;-63
2023/10/29 00:24:55;;;;;;;;;;;;;;;24.09;46.48;98863.97;4214119;28;19929;-64
2023/10/29 00:26:57;;;;;;;;;;;;;;;24.09;46.14;98875.53;4214535;28;19932;-64
2023/10/29 00:28:58;;;;;;;;;;;;;;;24.09;46.50;98858.59;4214273;28;19927;-63
2023/10/29 00:31:00;;;;;;;;;;;;;;;24.11;46.15;98866.47;4213936;28;19931;-64
2023/10/29 00:33:01;;;;;;;;;;;;;;;24.11;46.11;98871.84;4214494;28;20349;-63
2023/10/29 00:35:03;;;;;;;;;;;;;;;24.11;46.12;98871.84;4214189;28;19924;-64
2023/10/29 00:37:05;;;;;;;;;;;;;;;24.09;46.15;98854.06;4213538;28;20020;-64
2023/10/29 00:39:07;;;;;;;;;;;;;;;24.09;46.15;98855.94;4214324;28;19979;-64
2023/10/29 00:41:08;;;;;;;;;;;;;;;24.08;46.09;98862.31;4214252;28;20393;-64
2023/10/29 00:43:14;;;;;;;;;;;;;;;24.08;46.53;98851.56;4214145;28;19967;-64
2023/10/29 00:45:15;;;;;;;;;;;;;;;24.08;46.39;98839.00;4213951;28;20046;-64
2023/10/29 00:47:17;;;;;;;;;;;;;;;24.11;46.13;98845.00;4214075;28;20446;-64
2023/10/29 00:49:19;;;;;;;;;;;;;;;24.12;46.34;98844.81;4213818;28;19931;-63
2023/10/29 00:51:20;;;;;;;;;;;;;;;24.13;46.34;98840.28;4213910;28;19924;-63
2023/10/29 00:53:22;;;;;;;;;;;;;;;24.12;46.34;98817.97;4214055;28;19924;-64
2023/10/29 00:55:24;;;;;;;;;;;;;;;24.15;46.45;98840.91;4214253;28;20026;-64
2023/10/29 00:57:26;;;;;;;;;;;;;;;24.16;46.25;98834.53;4213993;28;19955;-63
2023/10/29 00:59:30;;;;;;;;;;;;;;;24.15;46.24;98835.53;4213752;28;20412;-61
2023/10/29 01:01:32;;;;;;;;;;;;;;;24.14;46.09;98839.25;4213618;28;19924;-64
2023/10/29 01:03:34;;;;;;;;;;;;;;;24.12;46.13;98844.81;4214050;28;20401;-63
2023/10/29 01:05:35;;;;;;;;;;;;;;;24.13;46.29;98861.75;4213812;28;19974;-63
2023/10/29 01:07:37;;;;;;;;;;;;;;;24.12;46.37;98843.97;4213984;28;19935;-64
2023/10/29 01:09:40;;;;;;;;;;;;;;;24.11;46.17;98853.88;4213666;28;19924;-63
2023/10/29 01:11:42;;;;;;;;;;;;;;;24.13;46.40;98854.50;4213759;28;20026;-64
2023/10/29 01:13:43;;;;;;;;;;;;;;;24.14;46.16;98874.97;4213514;28;20028;-64
2023/10/29 01:15:46;;;;;;;;;;;;;;;24.14;46.19;98864.25;4213511;28;19930;-64
2023/10/29 01:17:47;;;;;;;;;;;;;;;24.16;46.09;98864.06;4213791;28;20393;-64
2023/10/29 01:19:50;;;;;;;;;;;;;;;24.15;46.15;98868.59;4213872;28;19924;-64
2023/10/29 01:21:51;;;;;;;;;;;;;;;24.16;45.98;98872.13;4213669;28;19993;-63
2023/10/29 01:23:53;;;;;;;;;;;;;;;24.16;46.39;98886.38;4213629;28;19924;-63
2023/10/29 01:25:58;;;;;;;;;;;;;;;24.13;46.00;98870.63;4213843;28;19931;-64
2023/10/29 01:27:59;;;;;;;;;;;;;;;24.14;46.37;98866.09;4213465;28;19931;-63
2023/10/29 01:30:01;;;;;;;;;;;;;;;24.13;46.35;98875.19;4213220;28;20274;-64
2023/10/29 01:32:04;;;;;;;;;;;;;;;24.13;46.51;98873.31;4213813;28;19930;-64
2023/10/29 01:34:05;;;;;;;;;;;;;;;24.15;46.28;98884.72;4213377;28;19931;-63
2023/10/29 01:36:07;;;;;;;;;;;;;;;24.16;46.32;98890.94;4213571;28;19963;-63
2023/10/29 01:38:08;;;;;;;;;;;;;;;24.17;46.26;98896.09;4213748;28;19950;-63
2023/10/29 01:40:10;;;;;;;;;;;;;;;24.18;46.23;98896.94;4213586;28;20019;-63
2023/10/29 01:42:12;;;;;;;;;;;;;;;24.18;46.01;98897.78;4213468;28;19947;-64
2023/10/29 01:44:13;;;;;;;;;;;;;;;24.16;46.23;98897.13;4213140;28;19924;-64
2023/10/29 01:46:15;;;;;;;;;;;;;;;24.17;46.10;98906.84;4213595;28;19924;-63
2023/10/29 01:48:17;;;;;;;;;;;;;;;24.18;45.80;98907.66;4213251;28;19931;-64
2023/10/29 01:50:19;;;;;;;;;;;;;;;24.18;46.19;98921.09;4216792;28;20319;-64
2023/10/29 01:52:20;;;;;;;;;;;;;;;24.16;46.21;98915.94;4216825;28;19931;-64
2023/10/29 01:54:22;;;;;;;;;;;;;;;24.17;45.85;98922.13;4216775;28;20025;-63
2023/10/29 01:56:24;;;;;;;;;;;;;;;24.16;45.93;98917.78;4216637;28;19924;-63
2023/10/29 01:58:25;;;;;;;;;;;;;;;24.17;46.08;98935.53;4216490;28;20042;-64
2023/10/29 02:00:27;;;;;;;;;;;;;;;24.16;45.91;98923.97;4216846;28;20038;-63
2023/10/29 02:02:29;;;;;;;;;;;;;;;24.17;45.79;98920.28;4216509;28;19963;-64
2023/10/29 02:04:32;;;;;;;;;;;;;;;24.19;45.73;98938.88;4216293;28;19928;-64
2023/10/29 02:06:38;;;;;;;;;;;;;;;24.19;45.78;98925.47;4216815;28;19928;-64
2023/10/29 02:08:40;;;;;;;;;;;;;;;24.20;45.75;98929.81;4216482;28;19924;-64
2023/10/29 02:10:41;;;;;;;;;;;;;;;24.20;45.91;98929.81;4216369;28;20026;-64
2023/10/29 02:12:43;;;;;;;;;;;;;;;24.20;45.74;98927.94;4216359;28;19924;-63
2023/10/29 02:14:44;;;;;;;;;;;;;;;24.18;45.76;98923.78;4216310;28;19956;-64
2023/10/29 02:16:49;;;;;;;;;;;;;;;24.18;45.71;98938.06;4216255;28;20027;-63
2023/10/29 02:18:50;;;;;;;;;;;;;;;24.18;45.77;98945.28;4216513;28;20346;-64
2023/10/29 02:20:52;;;;;;;;;;;;;;;24.18;45.76;98956.88;4216428;28;19924;-64
2023/10/29 02:22:53;;;;;;;;;;;;;;;24.17;45.78;98949.81;4216530;28;19947;-64
2023/10/29 02:24:55;;;;;;;;;;;;;;;24.19;45.82;98950.47;4216232;28;19924;-64
2023/10/29 02:26:56;;;;;;;;;;;;;;;24.20;45.72;98951.31;4216079;28;19924;-64
2023/10/29 02:28:58;;;;;;;;;;;;;;;24.21;45.59;98944.91;4216302;28;19928;-64
2023/10/29 02:30:59;;;;;;;;;;;;;;;24.22;45.51;98954.66;4198242;28;19987;-64
2023/10/29 02:33:01;;;;;;;;;;;;;;;24.12;45.45;98936.13;4216219;28;20011;-63
2023/10/29 02:35:03;;;;;;;;;;;;;;;24.23;45.46;98956.31;4216194;28;19966;-63
2023/10/29 02:37:04;;;;;;;;;;;;;;;24.22;45.34;98968.91;4216343;28;19930;-63
2023/10/29 02:39:06;;;;;;;;;;;;;;;24.22;45.51;98974.28;4216147;28;19924;-64
2023/10/29 02:41:08;;;;;;;;;;;;;;;24.22;45.55;98987.69;4216024;28;19963;-64
2023/10/29 02:43:10;;;;;;;;;;;;;;;24.24;45.45;98998.25;4197826;28;20051;-64
2023/10/29 02:45:12;;;;;;;;;;;;;;;24.22;45.55;99001.13;4216096;28;20393;-63
2023/10/29 02:47:13;;;;;;;;;;;;;;;24.21;45.51;99002.16;4216004;28;19928;-63
2023/10/29 02:49:15;;;;;;;;;;;;;;;24.21;45.45;98994.09;4215544;28;20294;-63
2023/10/29 02:51:16;;;;;;;;;;;;;;;24.23;45.64;99002.81;4215825;28;20023;-63
2023/10/29 02:53:18;;;;;;;;;;;;;;;24.24;45.62;99006.31;4197960;28;19924;-63
2023/10/29 02:55:19;;;;;;;;;;;;;;;24.25;45.79;99016.03;4215824;28;20019;-63
2023/10/29 02:57:21;;;;;;;;;;;;;;;24.25;45.35;99018.72;4215475;28;19963;-63
2023/10/29 02:59:23;;;;;;;;;;;;;;;24.24;45.41;99011.69;4215480;28;19978;-63
2023/10/29 03:01:24;;;;;;;;;;;;;;;24.25;45.44;99002.59;4215910;28;20430;-63
2023/10/29 03:03:26;;;;;;;;;;;;;;;24.24;45.32;99020.59;4215632;28;19935;-63
2023/10/29 03:05:27;;;;;;;;;;;;;;;24.25;45.62;99016.03;4215611;28;19932;-63
2023/10/29 03:07:33;;;;;;;;;;;;;;;24.24;45.48;99006.31;4215452;28;19931;-63
2023/10/29 03:09:34;;;;;;;;;;;;;;;24.25;45.61;99007.97;4215867;28;20420;-64
2023/10/29 03:11:36;;;;;;;;;;;;;;;24.25;45.39;99007.97;4215345;28;19928;-63
2023/10/29 03:13:38;;;;;;;;;;;;;;;24.26;45.61;99006.97;4215689;28;20363;-63
2023/10/29 03:15:40;;;;;;;;;;;;;;;24.27;45.31;99015.88;4215546;28;19977;-64
2023/10/29 03:17:41;;;;;;;;;;;;;;;24.28;45.25;99010.31;4215508;28;19928;-63
2023/10/29 03:19:44;;;;;;;;;;;;;;;24.29;45.21;99003.94;4215502;28;20313;-64
2023/10/29 03:21:47;;;;;;;;;;;;;;;24.28;45.18;99007.63;4215562;28;19924;-63
2023/10/29 03:23:49;;;;;;;;;;;;;;;24.28;45.29;99021.06;4215416;28;19946;-63
2023/10/29 03:25:51;;;;;;;;;;;;;;;24.25;45.28;98997.25;4215137;28;19931;-64
2023/10/29 03:27:53;;;;;;;;;;;;;;;24.24;45.32;99001.78;4215225;28;19924;-63
2023/10/29 03:29:54;;;;;;;;;;;;;;;24.24;45.30;98991.03;4215087;28;19928;-62
2023/10/29 03:31:56;;;;;;;;;;;;;;;24.25;45.28;99007.97;4215273;28;19930;-63
2023/10/29 03:33:57;;;;;;;;;;;;;;;24.27;45.24;99015.88;4215273;28;20348;-63
2023/10/29 03:36:02;;;;;;;;;;;;;;;24.27;45.26;99015.88;4215304;28;19924;-62
2023/10/29 03:38:04;;;;;;;;;;;;;;;24.30;45.12;99023.56;4215208;28;19962;-63
2023/10/29 03:40:06;;;;;;;;;;;;;;;24.30;45.10;99026.25;4214791;28;19924;-62
2023/10/29 03:42:08;;;;;;;;;;;;;;;24.30;45.00;99023.56;4214954;28;19928;-63
2023/10/29 03:44:09;;;;;;;;;;;;;;;24.29;44.86;99033.47;4213983;28;20420;-63
2023/10/29 03:46:11;;;;;;;;;;;;;;;24.29;45.03;99040.69;4215136;28;19985;-63
2023/10/29 03:48:15;;;;;;;;;;;;;;;24.28;45.02;99039.88;4214960;28;19963;-63
2023/10/29 03:50:17;;;;;;;;;;;;;;;24.29;45.05;99046.06;4214615;28;19924;-64
2023/10/29 03:52:19;;;;;;;;;;;;;;;24.28;45.00;99053.28;4215033;28;19935;-63
2023/10/29 03:54:21;;;;;;;;;;;;;;;24.29;44.84;99054.13;4214428;28;19962;-63
2023/10/29 03:56:23;;;;;;;;;;;;;;;24.29;44.93;99048.75;4214708;28;19954;-64
2023/10/29 03:58:24;;;;;;;;;;;;;;;24.30;44.98;99053.09;4214755;28;20342;-63
2023/10/29 04:00:26;;;;;;;;;;;;;;;24.31;44.99;99060.16;4214758;28;19931;-63
2023/10/29 04:02:27;;;;;;;;;;;;;;;24.32;45.01;99040.31;4214940;28;20289;-64
2023/10/29 04:04:29;;;;;;;;;;;;;;;24.31;44.84;99041.34;4215008;28;20423;-63
2023/10/29 04:06:31;;;;;;;;;;;;;;;24.30;44.86;99043.19;4214842;28;19928;-63
2023/10/29 04:08:33;;;;;;;;;;;;;;;24.31;44.74;99060.97;4214583;28;20443;-63
2023/10/29 04:10:34;;;;;;;;;;;;;;;24.32;44.60;99067.19;4214576;28;19982;-65
2023/10/29 04:12:36;;;;;;;;;;;;;;;24.32;44.75;99062.66;4213775;28;19932;-64
2023/10/29 04:14:39;;;;;;;;;;;;;;;24.31;44.67;99052.09;4214641;28;19928;-63
2023/10/29 04:16:41;;;;;;;;;;;;;;;24.30;44.78;99045.03;4214573;28;19924;-64
2023/10/29 04:18:42;;;;;;;;;;;;;;;24.29;44.77;99044.22;4214507;28;19930;-64
2023/10/29 04:20:44;;;;;;;;;;;;;;;24.31;44.77;99062.84;4214544;28;20015;-63
2023/10/29 04:22:45;;;;;;;;;;;;;;;24.33;44.77;99066.19;4214342;28;19931;-64
2023/10/29 04:24:47;;;;;;;;;;;;;;;24.33;44.95;99060.81;4214473;28;19931;-64
2023/10/29 04:26:49;;;;;;;;;;;;;;;24.34;44.88;99065.13;4196294;28;19963;-63
2023/10/29 04:28:50;;;;;;;;;;;;;;;24.33;44.73;99082.31;4214582;28;20386;-63
2023/10/29 04:30:54;;;;;;;;;;;;;;;24.32;44.89;99077.94;4214342;28;19931;-63
2023/10/29 04:32:56;;;;;;;;;;;;;;;24.33;44.78;99076.94;4214503;28;20297;-64
2023/10/29 04:34:58;;;;;;;;;;;;;;;24.32;44.95;99076.06;4214408;28;19924;-63
2023/10/29 04:36:59;;;;;;;;;;;;;;;24.32;44.89;99080.63;4214488;28;19934;-63
2023/10/29 04:39:01;;;;;;;;;;;;;;;24.31;44.79;99070.91;4214039;28;19928;-63
2023/10/29 04:41:02;;;;;;;;;;;;;;;24.32;44.66;99072.56;4214120;28;19928;-63
2023/10/29 04:43:04;;;;;;;;;;;;;;;24.32;44.61;99065.31;4214307;28;19926;-64
2023/10/29 04:45:05;;;;;;;;;;;;;;;24.35;44.52;99074.88;4214281;28;19927;-62
2023/10/29 04:47:07;;;;;;;;;;;;;;;24.33;44.73;99075.06;4213908;28;19938;-63
2023/10/29 04:49:09;;;;;;;;;;;;;;;24.34;44.60;99067.81;4213889;28;20011;-64
2023/10/29 04:51:10;;;;;;;;;;;;;;;24.36;44.44;99079.22;4214006;28;19947;-64
2023/10/29 04:53:12;;;;;;;;;;;;;;;24.37;44.83;99070.16;4213819;28;19978;-63
2023/10/29 04:55:14;;;;;;;;;;;;;;;24.37;44.74;99065.59;4213954;28;20401;-63
2023/10/29 04:57:19;;;;;;;;;;;;;;;24.37;44.73;99049.47;4214022;28;19935;-63
2023/10/29 04:59:21;;;;;;;;;;;;;;;24.37;44.65;99054.03;4214006;28;20018;-63
2023/10/29 05:01:22;;;;;;;;;;;;;;;24.37;44.58;99057.53;4196202;28;20350;-64
2023/10/29 05:03:24;;;;;;;;;;;;;;;24.36;44.82;99055.91;4214075;28;19924;-64
2023/10/29 05:05:26;;;;;;;;;;;;;;;24.36;44.52;99063.09;4213917;28;19930;-63
2023/10/29 05:07:27;;;;;;;;;;;;;;;24.37;44.55;99062.91;4213417;28;20041;-63
2023/10/29 05:09:29;;;;;;;;;;;;;;;24.37;44.83;99060.22;4213796;28;19989;-64
2023/10/29 05:11:31;;;;;;;;;;;;;;;24.38;44.62;99061.06;4214044;28;20307;-64
2023/10/29 05:13:33;;;;;;;;;;;;;;;24.39;44.38;99058.19;4195841;28;19925;-63
2023/10/29 05:15:34;;;;;;;;;;;;;;;24.41;44.47;99058.00;4213424;28;19956;-64
2023/10/29 05:17:36;;;;;;;;;;;;;;;24.42;44.47;99062.38;4213772;28;19963;-63
2023/10/29 05:19:39;;;;;;;;;;;;;;;24.43;44.40;99065.91;4195901;28;19947;-63
2023/10/29 05:21:40;;;;;;;;;;;;;;;24.43;44.68;99061.34;4213483;28;20007;-64
2023/10/29 05:23:42;;;;;;;;;;;;;;;24.40;44.65;99061.75;4213393;28;20411;-63
2023/10/29 05:25:44;;;;;;;;;;;;;;;24.40;44.51;99059.88;4213865;28;19924;-63
2023/10/29 05:27:49;;;;;;;;;;;;;;;24.39;44.53;99060.06;4213621;28;20315;-64
2023/10/29 05:29:51;;;;;;;;;;;;;;;24.39;44.42;99052.00;4213734;28;20023;-64
2023/10/29 05:31:53;;;;;;;;;;;;;;;24.40;44.54;99051.81;4213516;28;19935;-63
2023/10/29 05:33:54;;;;;;;;;;;;;;;24.43;44.58;99047.09;4195790;28;19924;-63
2023/10/29 05:35:57;;;;;;;;;;;;;;;24.43;44.48;99042.53;4213170;28;20385;-63
2023/10/29 05:37:59;;;;;;;;;;;;;;;24.44;44.67;99057.66;4213709;28;19928;-64
2023/10/29 05:40:05;;;;;;;;;;;;;;;24.46;44.56;99063.69;4213334;28;19924;-63
2023/10/29 05:42:06;;;;;;;;;;;;;;;24.48;44.38;99066.16;4213425;28;20014;-63
2023/10/29 05:44:08;;;;;;;;;;;;;;;24.45;44.34;99067.38;4213433;28;19924;-63
2023/10/29 05:46:13;;;;;;;;;;;;;;;24.44;44.68;99062.19;4213494;28;19935;-63
2023/10/29 05:48:14;;;;;;;;;;;;;;;24.43;44.65;99063.22;4213276;28;20373;-63
2023/10/29 05:50:16;;;;;;;;;;;;;;;24.44;44.53;99070.25;4213184;28;19924;-63
2023/10/29 05:52:18;;;;;;;;;;;;;;;24.43;44.40;99080.16;4213154;28;19977;-63
2023/10/29 05:54:19;;;;;;;;;;;;;;;24.44;44.72;99086.38;4213392;28;19981;-63
2023/10/29 05:56:21;;;;;;;;;;;;;;;24.44;44.45;99089.91;4213441;28;20393;-64
2023/10/29 05:58:26;;;;;;;;;;;;;;;24.45;44.50;99086.19;4213428;28;19938;-64
2023/10/29 06:00:27;;;;;;;;;;;;;;;24.46;44.52;99085.19;4213491;28;19924;-64
2023/10/29 06:02:29;;;;;;;;;;;;;;;24.47;44.45;99086.00;4213365;28;20064;-64
2023/10/29 06:04:31;;;;;;;;;;;;;;;24.48;44.45;99079.59;4195006;28;19924;-64
2023/10/29 06:06:33;;;;;;;;;;;;;;;24.47;44.71;99068.00;4213373;28;19975;-64
2023/10/29 06:08:34;;;;;;;;;;;;;;;24.48;44.26;99068.84;4213548;28;20054;-64
2023/10/29 06:10:36;;;;;;;;;;;;;;;24.46;44.69;99073.56;4195165;28;19925;-64
2023/10/29 06:12:37;;;;;;;;;;;;;;;24.46;44.53;99081.63;4213241;28;19924;-64
2023/10/29 06:14:39;;;;;;;;;;;;;;;24.46;44.27;99090.56;4213161;28;19924;-64
2023/10/29 06:16:40;;;;;;;;;;;;;;;24.45;44.82;99090.72;4213325;28;19942;-64
2023/10/29 06:18:42;;;;;;;;;;;;;;;24.46;44.47;99095.06;4195159;28;19936;-64
2023/10/29 06:20:44;;;;;;;;;;;;;;;24.46;44.75;99097.75;4212994;28;19925;-64
2023/10/29 06:22:45;;;;;;;;;;;;;;;24.46;44.48;99104.00;4213262;28;19924;-64
2023/10/29 06:24:48;;;;;;;;;;;;;;;24.47;44.53;99102.13;4213457;28;19943;-64
2023/10/29 06:26:50;;;;;;;;;;;;;;;24.48;44.76;99107.31;4213251;28;20307;-65
2023/10/29 06:28:51;;;;;;;;;;;;;;;24.50;44.68;99093.69;4213039;28;19936;-64
2023/10/29 06:30:53;;;;;;;;;;;;;;;24.29;44.72;99068.41;4213080;28;19928;-63
2023/10/29 06:32:58;;;;;;;;;;;;;;;24.37;44.30;99087.09;4213155;28;19924;-64
2023/10/29 06:34:59;;;;;;;;;;;;;;;24.45;44.57;99115.75;4213922;28;19928;-64
2023/10/29 06:37:01;;;;;;;;;;;;;;;24.45;44.72;99117.59;4216132;28;19947;-64
2023/10/29 06:39:02;;;;;;;;;;;;;;;24.45;44.86;99104.16;4215958;28;19924;-64
2023/10/29 06:41:04;;;;;;;;;;;;;;;24.44;44.76;99116.75;4216095;28;20392;-64
2023/10/29 06:43:06;;;;;;;;;;;;;;;24.46;44.84;99113.88;4216099;28;19924;-64
2023/10/29 06:45:07;;;;;;;;;;;;;;;24.48;44.46;99109.16;4216059;28;19931;-64
2023/10/29 06:47:09;;;;;;;;;;;;;;;24.48;44.57;99117.22;4215868;28;20393;-63
2023/10/29 06:49:11;;;;;;;;;;;;;;;24.48;44.65;99118.06;4215438;28;20018;-63
2023/10/29 06:51:15;;;;;;;;;;;;;;;24.48;44.58;99119.91;4215135;28;20373;-64
2023/10/29 06:53:17;;;;;;;;;;;;;;;24.46;44.70;99128.16;4216009;28;20300;-63
2023/10/29 06:55:20;;;;;;;;;;;;;;;24.47;44.47;99120.94;4215545;28;19931;-63
2023/10/29 06:57:21;;;;;;;;;;;;;;;24.46;44.60;99132.69;4215940;28;19924;-63
2023/10/29 06:59:23;;;;;;;;;;;;;;;24.44;44.57;99135.56;4216066;28;19967;-63
2023/10/29 07:01:25;;;;;;;;;;;;;;;24.43;44.89;99133.91;4215820;28;19959;-63
2023/10/29 07:03:26;;;;;;;;;;;;;;;24.43;44.71;99133.09;4215492;28;19931;-62
2023/10/29 07:05:28;;;;;;;;;;;;;;;24.45;44.89;99136.41;4215649;28;20434;-63
2023/10/29 07:07:30;;;;;;;;;;;;;;;24.46;44.63;99146.13;4215528;28;19924;-63
2023/10/29 07:09:31;;;;;;;;;;;;;;;24.47;44.63;99145.94;4215580;28;19924;-63
2023/10/29 07:11:33;;;;;;;;;;;;;;;24.47;44.58;99159.38;4215431;28;19928;-62
2023/10/29 07:13:34;;;;;;;;;;;;;;;24.47;44.60;99145.13;4215652;28;19931;-62
2023/10/29 07:15:39;;;;;;;;;;;;;;;24.48;44.70;99146.78;4215457;28;19931;-62
2023/10/29 07:17:40;;;;;;;;;;;;;;;24.48;44.52;99147.63;4215001;28;19932;-63
2023/10/29 07:19:42;;;;;;;;;;;;;;;24.48;44.52;99138.72;4215281;28;20022;-62
2023/10/29 07:21:44;;;;;;;;;;;;;;;24.46;44.54;99136.22;4215432;28;19946;-62
2023/10/29 07:23:45;;;;;;;;;;;;;;;24.46;44.89;99132.69;4215327;28;20412;-63
2023/10/29 07:25:47;;;;;;;;;;;;;;;24.46;44.54;99136.22;4215021;28;19924;-63
2023/10/29 07:27:49;;;;;;;;;;;;;;;24.49;44.75;99141.22;4215470;28;19933;-63
2023/10/29 07:29:50;;;;;;;;;;;;;;;24.50;44.52;99129.47;4215153;28;19928;-64
2023/10/29 07:31:52;;;;;;;;;;;;;;;24.52;44.62;99127.44;4196982;28;19977;-63
2023/10/29 07:33:53;;;;;;;;;;;;;;;24.53;44.30;99117.50;4215295;28;19947;-63
2023/10/29 07:35:55;;;;;;;;;;;;;;;24.53;44.49;99114.81;4215234;28;19924;-63
2023/10/29 07:37:57;;;;;;;;;;;;;;;24.54;44.74;99111.13;4215110;28;20015;-63
2023/10/29 07:39:58;;;;;;;;;;;;;;;24.53;44.83;99110.28;4215156;28;19962;-63
2023/10/29 07:42:01;;;;;;;;;;;;;;;24.53;44.31;99122.88;4215157;28;19930;-64
2023/10/29 07:44:03;;;;;;;;;;;;;;;24.52;44.74;99118.50;4215023;28;19928;-63
2023/10/29 07:46:04;;;;;;;;;;;;;;;24.52;44.42;99115.84;4214824;28;20305;-63
2023/10/29 07:48:06;;;;;;;;;;;;;;;24.50;44.48;99096.38;4214925;28;19999;-63
2023/10/29 07:50:08;;;;;;;;;;;;;;;24.50;44.55;99091.03;4214814;28;19924;-63
2023/10/29 07:52:10;;;;;;;;;;;;;;;24.51;44.90;99098.03;4214934;28;19924;-63
2023/10/29 07:54:12;;;;;;;;;;;;;;;24.52;44.61;99107.78;4214857;28;19924;-63
2023/10/29 07:56:14;;;;;;;;;;;;;;;24.54;44.68;99100.38;4214660;28;19924;-62
2023/10/29 07:58:15;;;;;;;;;;;;;;;24.56;44.57;99101.03;4214854;28;19925;-62
2023/10/29 08:00:20;;;;;;;;;;;;;;;24.56;44.46;99101.03;4214486;28;19959;-63
2023/10/29 08:02:21;;;;;;;;;;;;;;;24.56;44.46;99104.53;4214842;28;19935;-63
2023/10/29 08:04:23;;;;;;;;;;;;;;;24.54;44.80;99098.50;4214935;28;19928;-63
2023/10/29 08:06:24;;;;;;;;;;;;;;;24.55;44.53;99102.03;4214900;28;20019;-63
2023/10/29 08:08:26;;;;;;;;;;;;;;;24.53;44.55;99099.53;4196740;28;19928;-62
2023/10/29 08:10:27;;;;;;;;;;;;;;;24.53;44.66;99112.97;4214551;28;19924;-63
2023/10/29 08:12:30;;;;;;;;;;;;;;;24.53;44.55;99129.09;4214633;28;19924;-63
2023/10/29 08:14:31;;;;;;;;;;;;;;;24.54;44.53;99124.56;4214254;28;19964;-63
2023/10/29 08:16:33;;;;;;;;;;;;;;;24.54;44.38;99122.69;4214496;28;20334;-62
2023/10/29 08:18:34;;;;;;;;;;;;;;;24.55;44.48;99118.97;4214275;28;20493;-63
2023/10/29 08:20:36;;;;;;;;;;;;;;;24.55;44.63;99116.28;4214566;28;20014;-62
2023/10/29 08:22:38;;;;;;;;;;;;;;;24.58;44.57;99122.34;4214711;28;20076;-63
2023/10/29 08:24:43;;;;;;;;;;;;;;;24.59;44.53;99132.06;4214659;28;19924;-62
2023/10/29 08:26:45;;;;;;;;;;;;;;;24.60;44.70;99117.63;4214293;28;20015;-63
2023/10/29 08:28:46;;;;;;;;;;;;;;;24.59;44.64;99121.31;4214394;28;19927;-63
2023/10/29 08:30:48;;;;;;;;;;;;;;;24.58;44.46;99117.78;4213951;28;19928;-62
2023/10/29 08:32:49;;;;;;;;;;;;;;;24.58;44.53;99120.47;4214179;28;19971;-62
2023/10/29 08:34:51;;;;;;;;;;;;;;;24.58;44.51;99117.78;4214076;28;20027;-62
2023/10/29 08:36:52;;;;;;;;;;;;;;;24.58;44.63;99125.03;4214354;28;20340;-64
2023/10/29 08:38:54;;;;;;;;;;;;;;;24.56;44.80;99122.53;4214027;28;19928;-64
2023/10/29 08:40:56;;;;;;;;;;;;;;;24.58;44.65;99123.16;4214210;28;19924;-64
2023/10/29 08:42:57;;;;;;;;;;;;;;;24.58;44.54;99125.84;4214273;28;19924;-63
2023/10/29 08:44:59;;;;;;;;;;;;;;;24.60;44.53;99123.81;4213623;28;20339;-64
2023/10/29 08:47:01;;;;;;;;;;;;;;;24.61;44.71;99152.38;4214273;28;19924;-64
2023/10/29 08:49:02;;;;;;;;;;;;;;;24.62;44.75;99148.66;4213957;28;19990;-64
2023/10/29 08:51:04;;;;;;;;;;;;;;;24.61;44.57;99157.75;4214253;28;19965;-64
2023/10/29 08:53:05;;;;;;;;;;;;;;;24.60;44.88;99144.50;4213943;28;19935;-64
2023/10/29 08:55:08;;;;;;;;;;;;;;;24.59;44.62;99126.69;4214127;28;19931;-63
2023/10/29 08:57:10;;;;;;;;;;;;;;;24.56;44.85;99134.09;4195821;28;19994;-64
2023/10/29 08:59:12;;;;;;;;;;;;;;;24.55;44.79;99135.13;4195390;28;19943;-63
2023/10/29 09:01:14;;;;;;;;;;;;;;;24.54;44.99;99130.75;4213937;28;19924;-63
2023/10/29 09:03:15;;;;;;;;;;;;;;;24.54;44.99;99113.81;4214026;28;19966;-62
2023/10/29 09:05:18;;;;;;;;;;;;;;;24.55;44.86;99118.97;4213811;28;19924;-64
2023/10/29 09:07:20;;;;;;;;;;;;;;;24.58;44.70;99103.50;4213908;28;20350;-64
2023/10/29 09:09:21;;;;;;;;;;;;;;;24.59;44.71;99099.81;4213732;28;19933;-63
2023/10/29 09:11:23;;;;;;;;;;;;;;;24.60;44.69;99104.16;4213846;28;19951;-64
2023/10/29 09:13:25;;;;;;;;;;;;;;;24.61;44.86;99103.16;4213426;28;20373;-64
2023/10/29 09:15:27;;;;;;;;;;;;;;;24.60;44.76;99102.31;4213807;28;20308;-64
2023/10/29 09:17:29;;;;;;;;;;;;;;;24.59;44.91;99089.06;4213565;28;20458;-63
2023/10/29 09:19:31;;;;;;;;;;;;;;;24.59;45.04;99084.50;4214062;28;19924;-64
2023/10/29 09:21:33;;;;;;;;;;;;;;;24.58;44.76;99084.69;4213600;28;20388;-64
2023/10/29 09:23:34;;;;;;;;;;;;;;;24.58;45.18;99074.78;4213694;28;20400;-63
2023/10/29 09:25:47;;;;;;;;;;;;;;;24.59;44.80;99065.69;4213660;28;20368;-64
2023/10/29 09:27:48;;;;;;;;;;;;;;;24.60;44.82;99063.84;4213165;28;19925;-63
2023/10/29 09:29:50;;;;;;;;;;;;;;;24.60;44.92;99077.28;4213711;28;20006;-63
2023/10/29 09:31:52;;;;;;;;;;;;;;;24.62;44.93;99089.53;4213815;28;19973;-63
2023/10/29 09:33:54;;;;;;;;;;;;;;;24.61;44.95;99055.59;4213502;28;20023;-64
2023/10/29 09:35:56;;;;;;;;;;;;;;;24.62;45.23;99048.34;4213723;28;19966;-63
2023/10/29 09:37:58;;;;;;;;;;;;;;;24.62;45.27;99051.91;4213615;28;19924;-63
2023/10/29 09:40:01;;;;;;;;;;;;;;;24.61;45.28;99063.66;4213521;28;19964;-63
2023/10/29 09:42:08;;;;;;;;;;;;;;;24.62;44.82;99088.66;4213491;28;20018;-63
2023/10/29 09:44:17;;;;;;;;;;;;;;;24.60;44.92;99096.09;4213384;28;20350;-64
2023/10/29 09:46:21;;;;;;;;;;;;;;;24.60;44.99;99098.81;4213481;28;20385;-64
2023/10/29 09:48:23;;;;;;;;;;;;;;;24.57;45.29;99089.25;4213444;28;20316;-64
2023/10/29 09:50:25;;;;;;;;;;;;;;;24.59;45.07;99089.06;4213290;28;19924;-63
2023/10/29 09:52:28;;;;;;;;;;;;;;;24.59;45.13;99091.75;4213610;28;20019;-63
2023/10/29 09:54:30;;;;;;;;;;;;;;;24.59;45.03;99105.19;4213480;28;19924;-63
2023/10/29 09:56:33;;;;;;;;;;;;;;;24.60;45.21;99098.81;4213097;28;19924;-63
2023/10/29 09:58:35;;;;;;;;;;;;;;;24.60;44.80;99088.88;4213586;28;19973;-64
2023/10/29 10:00:37;;;;;;;;;;;;;;;24.61;45.16;99077.09;4213253;28;19947;-63
2023/10/29 10:02:57;;;;;;;;;;;;;;;24.62;44.77;99075.22;4213381;28;20011;-64
2023/10/29 10:05:00;;;;;;;;;;;;;;;24.62;44.95;99080.59;4213484;28;19924;-63
2023/10/29 10:07:02;;;;;;;;;;;;;;;24.62;45.16;99077.91;4213069;28;19954;-62
2023/10/29 10:09:05;;;;;;;;;;;;;;;24.62;44.73;99069.84;4213388;28;19924;-63
2023/10/29 10:11:19;;;;;;;;;;;;;;;24.62;45.12;99077.91;4216137;28;19970;-64
2023/10/29 10:13:37;;;;;;;;;;;;;;;24.62;44.74;99084.16;4216751;28;20270;-63
2023/10/29 10:15:38;;;;;;;;;;;;;;;24.63;44.83;99093.03;4216417;28;19924;-63
2023/10/29 10:17:48;;;;;;;;;;;;;;;24.64;44.78;99084.81;4216461;28;19928;-63
2023/10/29 10:20:05;;;;;;;;;;;;;;;24.65;44.99;99093.69;4216620;28;20018;-63
2023/10/29 10:22:07;;;;;;;;;;;;;;;24.66;44.56;99100.78;4216578;28;20463;-64
2023/10/29 10:24:09;;;;;;;;;;;;;;;24.66;44.86;99098.09;4216351;28;19932;-64
2023/10/29 10:26:12;;;;;;;;;;;;;;;24.67;44.53;99094.38;4216211;28;19924;-64
2023/10/29 10:28:14;;;;;;;;;;;;;;;24.65;44.60;99089.13;4216307;28;20292;-63
2023/10/29 10:30:26;;;;;;;;;;;;;;;24.64;44.71;99087.50;4216508;28;20055;-64
2023/10/29 10:32:27;;;;;;;;;;;;;;;24.64;44.73;99066.00;4216279;28;19993;-64
2023/10/29 10:34:30;;;;;;;;;;;;;;;24.65;44.73;99073.00;4216426;28;19931;-64
2023/10/29 10:36:31;;;;;;;;;;;;;;;24.63;44.69;99075.06;4216078;28;20014;-64